createdAt,value
2022-09-14T00:01:25.737Z,2.08
2022-09-14T00:09:01.890Z,2.78
2022-09-14T00:16:40.478Z,3.30
2022-09-14T00:24:14.306Z,2.50
2022-09-14T00:31:49.649Z,2.03
2022-09-14T00:39:25.334Z,2.00
2022-09-14T00:47:03.833Z,2.10
2022-09-14T00:54:39.338Z,1.63
2022-09-14T01:02:15.892Z,1.65
2022-09-14T01:10:02.145Z,1.80
2022-09-14T01:17:42.605Z,1.92
2022-09-14T01:25:36.368Z,1.92
2022-09-14T01:33:17.257Z,2.00
2022-09-14T01:40:52.480Z,2.35
2022-09-14T01:48:35.583Z,2.50
2022-09-14T01:56:17.084Z,2.03
2022-09-14T02:03:58.065Z,2.05
2022-09-14T02:11:32.110Z,1.80
2022-09-14T02:19:07.403Z,2.90
2022-09-14T02:26:41.755Z,2.30
2022-09-14T02:34:25.663Z,2.13
2022-09-14T02:42:08.397Z,1.70
2022-09-14T02:49:51.538Z,2.20
2022-09-14T02:57:25.488Z,2.00
2022-09-14T03:05:00.954Z,1.85
2022-09-14T03:12:34.843Z,2.30
2022-09-14T03:20:11.471Z,2.35
2022-09-14T03:27:48.850Z,2.30
2022-09-14T03:35:24.471Z,2.80
2022-09-14T03:42:58.821Z,2.38
2022-09-14T03:50:34.724Z,3.00
2022-09-14T03:58:08.486Z,3.00
2022-09-14T04:05:45.405Z,2.22
2022-09-14T04:13:19.311Z,2.30
2022-09-14T04:20:59.162Z,2.80
2022-09-14T04:28:32.792Z,2.10
2022-09-14T04:36:10.276Z,2.95
2022-09-14T04:43:45.504Z,2.88
2022-09-14T04:51:24.403Z,2.65
2022-09-14T04:58:59.802Z,2.80
2022-09-14T05:06:37.675Z,2.78
2022-09-14T05:14:12.925Z,3.45
2022-09-14T05:21:48.308Z,2.28
2022-09-14T05:29:22.002Z,2.75
2022-09-14T05:36:57.317Z,2.97
2022-09-14T05:44:32.348Z,2.80
2022-09-14T05:59:41.236Z,3.22
2022-09-14T06:07:18.845Z,3.00
2022-09-14T06:14:52.854Z,3.22
2022-09-14T06:22:27.930Z,3.03
2022-09-14T06:37:36.867Z,2.45
2022-09-14T06:52:45.860Z,2.63
2022-09-14T07:00:20.043Z,2.92
2022-09-14T07:07:55.236Z,3.23
2022-09-14T07:15:29.103Z,2.35
2022-09-14T07:23:04.236Z,2.50
2022-09-14T07:30:39.127Z,2.65
2022-09-14T07:38:14.148Z,2.05
2022-09-14T07:53:22.771Z,2.00
2022-09-14T08:00:59.708Z,2.15
2022-09-14T08:08:36.998Z,1.73
2022-09-14T08:16:11.468Z,1.90
2022-09-14T08:23:46.746Z,2.43
2022-09-14T08:31:22.713Z,1.67
2022-09-14T08:38:58.241Z,2.00
2022-09-14T08:46:36.778Z,2.17
2022-09-14T08:54:12.134Z,1.40
2022-09-14T09:01:54.487Z,2.00
2022-09-14T09:09:39.083Z,1.38
2022-09-14T09:17:18.726Z,1.20
2022-09-14T09:24:55.804Z,1.30
2022-09-14T09:32:29.639Z,1.27
2022-09-14T09:40:15.261Z,1.20
2022-09-14T09:47:50.761Z,1.95
2022-09-14T09:55:32.931Z,1.20
2022-09-14T10:03:27.138Z,1.20
2022-09-14T10:11:03.877Z,1.38
2022-09-14T10:18:48.161Z,1.70
2022-09-14T10:26:28.943Z,1.35
2022-09-14T10:34:02.859Z,1.30
2022-09-14T10:41:54.823Z,1.00
2022-09-14T10:49:43.331Z,0.90
2022-09-14T10:57:27.740Z,1.20
2022-09-14T11:05:12.594Z,1.20
2022-09-14T11:12:57.345Z,1.47
2022-09-14T11:20:40.647Z,1.03
2022-09-14T11:28:21.081Z,1.05
2022-09-14T11:35:59.795Z,1.05
2022-09-14T11:43:45.048Z,1.30
2022-09-14T11:51:23.899Z,1.40
2022-09-14T11:59:00.523Z,1.20
2022-09-14T12:07:05.534Z,1.40
2022-09-14T12:14:44.514Z,1.65
2022-09-14T12:22:29.229Z,1.50
2022-09-14T12:30:04.555Z,1.30
2022-09-14T12:37:38.281Z,1.40
2022-09-14T12:45:52.220Z,1.27
2022-09-14T12:53:32.709Z,1.25
2022-09-14T13:01:23.069Z,1.38
2022-09-14T13:08:59.928Z,1.45
2022-09-14T13:16:47.585Z,2.13
2022-09-14T13:24:28.826Z,1.30
2022-09-14T13:32:04.954Z,1.02
2022-09-14T13:39:41.931Z,1.80
2022-09-14T13:47:22.134Z,1.23
2022-09-14T13:54:57.425Z,1.02
2022-09-14T14:02:35.038Z,1.52
2022-09-14T14:10:24.836Z,1.42
2022-09-14T14:18:00.962Z,0.90
2022-09-14T14:33:20.995Z,1.30
2022-09-14T14:40:58.088Z,1.80
2022-09-14T14:48:33.286Z,1.30
2022-09-14T15:03:42.256Z,1.55
2022-09-14T15:11:18.087Z,1.85
2022-09-14T15:18:53.041Z,1.35
2022-09-14T15:34:01.760Z,1.23
2022-09-14T15:41:35.474Z,1.52
2022-09-14T15:49:14.177Z,1.30
2022-09-14T15:56:50.522Z,1.42
2022-09-14T16:04:25.573Z,1.33
2022-09-14T16:19:37.235Z,1.60
2022-09-14T16:27:10.944Z,2.05
2022-09-14T16:34:45.978Z,2.42
2022-09-14T16:49:55.171Z,1.58
2022-09-14T17:05:05.798Z,2.10
2022-09-14T17:12:39.504Z,1.70
2022-09-14T17:20:14.509Z,2.30
2022-09-14T17:35:23.304Z,2.40
2022-09-14T17:42:58.851Z,2.70
2022-09-14T17:50:35.035Z,2.17
2022-09-14T17:58:11.422Z,2.20
2022-09-14T18:05:55.213Z,2.20
2022-09-14T18:13:28.916Z,2.15
2022-09-14T18:21:05.124Z,2.05
2022-09-14T18:28:38.760Z,2.45
2022-09-14T18:36:15.183Z,2.20
2022-09-14T18:43:51.616Z,3.28
2022-09-14T18:51:27.709Z,2.88
2022-09-14T18:59:02.534Z,3.42
2022-09-14T19:06:38.763Z,3.60
2022-09-14T19:14:15.309Z,4.78
2022-09-14T19:21:50.381Z,3.90
2022-09-14T19:37:00.434Z,3.85
2022-09-14T19:44:34.158Z,4.57
2022-09-14T19:52:09.272Z,4.43
2022-09-14T20:07:19.074Z,5.68
2022-09-14T20:22:27.881Z,5.53
2022-09-14T20:37:36.650Z,5.07
2022-09-14T20:52:46.227Z,4.63
2022-09-14T21:00:20.144Z,4.55
2022-09-14T21:07:56.457Z,4.55
2022-09-14T21:15:32.295Z,5.07
2022-09-14T21:23:07.910Z,4.72
2022-09-14T21:30:41.615Z,5.03
2022-09-14T21:38:16.631Z,4.95
2022-09-14T21:53:25.384Z,4.90
2022-09-14T22:00:59.498Z,4.20
2022-09-14T22:08:36.982Z,3.60
2022-09-14T22:16:13.590Z,4.53
2022-09-14T22:23:52.157Z,3.80
2022-09-14T22:31:27.454Z,3.88
2022-09-14T22:39:03.204Z,3.22
2022-09-14T22:46:37.495Z,3.65
2022-09-14T22:54:12.529Z,3.77
2022-09-14T23:09:22.971Z,3.38
2022-09-14T23:16:56.874Z,3.20
2022-09-14T23:24:31.990Z,2.60
2022-09-14T23:39:41.106Z,2.90
2022-09-14T23:47:14.943Z,3.00
2022-09-14T23:54:50.230Z,3.00
